Terminal Aerodrome Forecast
Issued by NWS Greer, SC

Current Version | Previous Version | Text Only | Print | Product List | Glossary On
Versions: 1 2 3 4 5 6 7 8 9 10 11 12 13 14 15 16 17 18 19 20 21 22 23 24 25 26 27 28 29 30
000
FTUS42 KGSP 300540
TAFAVL
TAF
KAVL 300540Z 3006/3106 19009KT P6SM SKC WS020/23035KT
     FM300900 20006KT P6SM -SHRA BKN060 WS020/24035KT
     FM301300 33006KT P6SM BKN015
     FM301500 33009KT P6SM BKN021
     FM301600 33011G19KT P6SM SCT060
     FM310100 32007KT P6SM FEW250=

USA.gov is the U.S. government's official web portal to all federal, state and local government web resources and services.